Time;durP1;ratioP1;P1;durP2;ratioP2;P2;SDS_P1;SDS_P2;PMS_P1;PMS_P2;Temp;Humidity;BMP_temperature;BMP_pressure;BME280_temperature;BME280_humidity;BME280_pressure;Samples;Min_cycle;Max_cycle;Signal;HPM_P1;HPM_P2
2021/12/22 00:00:11;;;;;;;159.98;90.40;;;0.40;99.90;;;;;;4955354;29;20454;-79
2021/12/22 00:02:39;;;;;;;123.70;70.45;;;0.40;99.90;;;;;;4955015;29;20039;-76
2021/12/22 00:05:06;;;;;;;121.88;66.95;;;0.40;99.90;;;;;;4954635;29;20062;-79
2021/12/22 00:07:32;;;;;;;177.77;102.95;;;0.40;99.90;;;;;;4955227;29;20419;-78
2021/12/22 00:09:58;;;;;;;136.93;78.57;;;0.40;99.90;;;;;;4963046;29;20027;-78
2021/12/22 00:12:24;;;;;;;151.45;91.72;;;0.40;99.90;;;;;;4963997;28;20041;-77
2021/12/22 00:14:50;;;;;;;132.05;81.75;;;0.40;99.90;;;;;;4962585;29;20114;-78
2021/12/22 00:17:15;;;;;;;111.47;64.45;;;0.30;99.90;;;;;;4959974;29;20080;-78
2021/12/22 00:19:41;;;;;;;122.40;68.20;;;0.10;99.90;;;;;;4958181;29;20473;-78
2021/12/22 00:22:08;;;;;;;111.88;64.07;;;0.00;99.90;;;;;;4955289;29;20485;-79
2021/12/22 00:24:34;;;;;;;75.18;45.22;;;-0.10;99.90;;;;;;4938454;29;20034;-75
2021/12/22 00:27:02;;;;;;;84.05;51.10;;;-0.10;99.90;;;;;;4955481;29;20121;-77
2021/12/22 00:29:28;;;;;;;91.25;53.78;;;-0.20;99.90;;;;;;4960871;29;20020;-79
2021/12/22 00:32:09;;;;;;;101.90;62.10;;;-0.30;99.90;;;;;;4955473;29;20038;-77
2021/12/22 00:34:44;;;;;;;107.90;58.55;;;-0.30;99.90;;;;;;4954441;29;20051;-76
2021/12/22 00:37:10;;;;;;;49.90;29.75;;;-0.30;99.90;;;;;;4954348;29;20431;-72
2021/12/22 00:39:36;;;;;;;52.30;28.55;;;-0.20;99.90;;;;;;4954695;29;20061;-72
2021/12/22 00:42:02;;;;;;;54.60;30.27;;;-0.20;99.90;;;;;;4953354;28;20086;-79
2021/12/22 00:44:27;;;;;;;60.13;31.45;;;-0.20;99.90;;;;;;4954569;29;20426;-77
2021/12/22 00:46:53;;;;;;;62.75;32.75;;;-0.10;99.90;;;;;;4954512;29;20043;-78
2021/12/22 00:49:19;;;;;;;51.08;29.75;;;-0.10;99.90;;;;;;4954107;28;20485;-79
2021/12/22 00:51:45;;;;;;;52.47;29.17;;;0.00;99.90;;;;;;4953386;29;20114;-78
2021/12/22 00:54:11;;;;;;;66.13;37.92;;;0.10;99.90;;;;;;4954479;29;20106;-79
2021/12/22 00:56:38;;;;;;;96.80;57.95;;;0.10;99.90;;;;;;4954632;29;20035;-77
2021/12/22 00:59:04;;;;;;;64.93;39.50;;;0.20;99.90;;;;;;4954511;29;20425;-77
2021/12/22 01:01:30;;;;;;;71.60;46.35;;;0.10;99.90;;;;;;4954620;29;20030;-79
2021/12/22 01:03:57;;;;;;;65.07;41.13;;;0.20;99.90;;;;;;4955708;29;20034;-79
2021/12/22 01:06:23;;;;;;;64.43;40.20;;;0.10;99.90;;;;;;4957329;28;20065;-78
2021/12/22 01:08:50;;;;;;;60.47;37.45;;;0.10;99.90;;;;;;4958096;29;20050;-78
2021/12/22 01:11:16;;;;;;;75.85;46.70;;;0.10;99.90;;;;;;4963631;29;20136;-79
2021/12/22 01:13:42;;;;;;;57.95;38.33;;;0.10;99.90;;;;;;4956842;29;20019;-78
2021/12/22 01:16:08;;;;;;;54.70;36.35;;;0.00;99.90;;;;;;4954352;29;20078;-80
2021/12/22 01:18:35;;;;;;;56.47;37.08;;;-0.10;99.90;;;;;;4954090;29;20035;-78
2021/12/22 01:23:48;;;;;;;69.75;43.42;;;0.00;99.90;;;;;;4959250;29;20031;-80
2021/12/22 01:26:14;;;;;;;63.13;36.97;;;-0.10;99.90;;;;;;4957526;29;20046;-75
2021/12/22 01:28:42;;;;;;;65.25;35.90;;;-0.20;99.90;;;;;;4957083;29;20020;-80
2021/12/22 01:31:14;;;;;;;68.82;37.33;;;-0.20;99.90;;;;;;4940264;29;20393;-79
2021/12/22 01:33:40;;;;;;;65.25;41.35;;;-0.20;99.90;;;;;;4955172;29;20513;-75
2021/12/22 01:36:06;;;;;;;70.75;42.65;;;-0.20;99.90;;;;;;4954499;29;20066;-71
2021/12/22 01:38:32;;;;;;;72.82;45.05;;;-0.10;99.90;;;;;;4954822;28;20073;-79
2021/12/22 01:40:59;;;;;;;64.57;37.00;;;-0.10;99.90;;;;;;4955740;29;20513;-80
2021/12/22 01:43:25;;;;;;;64.47;38.53;;;-0.10;99.90;;;;;;4957093;28;20031;-78
2021/12/22 01:51:34;;;;;;;69.07;39.55;;;0.00;99.90;;;;;;4957864;29;20192;-72
2021/12/22 01:54:05;;;;;;;65.85;41.45;;;0.10;99.90;;;;;;4955474;29;20381;-74
2021/12/22 01:56:33;;;;;;;69.80;44.20;;;0.10;99.90;;;;;;4954139;29;20602;-79
2021/12/22 01:59:02;;;;;;;70.45;43.13;;;0.10;99.90;;;;;;4953753;29;20028;-74
2021/12/22 02:01:31;;;;;;;71.18;45.30;;;0.10;99.90;;;;;;4954671;28;20024;-79
2021/12/22 02:03:57;;;;;;;85.88;48.90;;;0.10;99.90;;;;;;4956106;29;20430;-77
2021/12/22 02:06:23;;;;;;;70.13;42.17;;;0.10;99.90;;;;;;4957045;29;20051;-78
2021/12/22 02:08:52;;;;;;;60.15;35.40;;;0.10;99.90;;;;;;4956150;28;20075;-78
2021/12/22 02:11:18;;;;;;;58.65;37.47;;;0.20;99.90;;;;;;4957494;29;20427;-72
2021/12/22 02:13:48;;;;;;;62.53;39.05;;;0.20;99.90;;;;;;4968401;28;20414;-78
2021/12/22 02:16:16;;;;;;;53.10;33.03;;;0.30;99.90;;;;;;4974858;28;20034;-78
2021/12/22 02:18:49;;;;;;;48.65;29.52;;;0.30;99.90;;;;;;4957377;29;20405;-78
2021/12/22 02:21:17;;;;;;;50.72;30.92;;;0.30;99.90;;;;;;4957513;29;20050;-78
2021/12/22 02:23:44;;;;;;;46.95;28.63;;;0.30;99.90;;;;;;4970246;28;20061;-78
2021/12/22 02:26:18;;;;;;;41.80;28.33;;;0.30;99.90;;;;;;4976378;28;20039;-77
2021/12/22 02:28:47;;;;;;;71.13;43.05;;;0.10;99.90;;;;;;4976441;28;20027;-71
2021/12/22 02:31:18;;;;;;;62.22;36.88;;;0.00;99.90;;;;;;4976066;28;20026;-78
2021/12/22 02:33:47;;;;;;;45.28;31.50;;;-0.10;99.90;;;;;;4972970;28;20041;-78
2021/12/22 02:38:46;;;;;;;42.38;26.13;;;-0.40;99.90;;;;;;4957407;29;20082;-75
2021/12/22 02:41:16;;;;;;;42.20;25.48;;;-0.40;99.90;;;;;;4956872;29;20102;-75
2021/12/22 02:43:50;;;;;;;38.22;25.58;;;-0.30;99.90;;;;;;4956647;29;20490;-71
2021/12/22 02:46:27;;;;;;;36.33;23.92;;;-0.40;99.90;;;;;;4958396;29;20046;-79
2021/12/22 02:48:57;;;;;;;40.80;25.98;;;-0.40;99.90;;;;;;4960823;29;20027;-74
2021/12/22 02:51:28;;;;;;;40.13;25.25;;;-0.30;99.90;;;;;;4942864;29;20398;-79
2021/12/22 03:02:06;;;;;;;36.72;23.90;;;-0.30;99.90;;;;;;4958789;28;20039;-74
2021/12/22 03:04:31;;;;;;;45.72;27.23;;;-0.30;99.90;;;;;;4958231;29;20041;-78
2021/12/22 03:07:05;;;;;;;44.22;27.92;;;-0.30;99.90;;;;;;4957395;29;20050;-78
2021/12/22 03:09:34;;;;;;;36.88;24.27;;;-0.30;99.90;;;;;;4957619;29;20035;-78
2021/12/22 03:12:03;;;;;;;39.72;24.60;;;-0.30;99.90;;;;;;4957259;28;20027;-75
2021/12/22 03:14:29;;;;;;;35.55;23.08;;;-0.20;99.90;;;;;;4956938;29;20031;-70
2021/12/22 03:16:57;;;;;;;37.85;24.50;;;-0.20;99.90;;;;;;4956756;29;20033;-71
2021/12/22 03:19:26;;;;;;;38.00;24.23;;;-0.20;99.90;;;;;;4956725;29;20089;-76
2021/12/22 03:21:59;;;;;;;46.10;29.20;;;-0.20;99.90;;;;;;4956661;29;20102;-79
2021/12/22 03:24:26;;;;;;;;;;;-0.20;99.90;;;;;;4957017;29;20024;-79
2021/12/22 03:26:52;;;;;;;44.78;28.60;;;-0.30;99.90;;;;;;4956543;29;19961;-79
2021/12/22 03:29:19;;;;;;;59.90;34.40;;;-0.30;99.90;;;;;;4956416;29;20031;-78
2021/12/22 03:31:46;;;;;;;39.97;25.10;;;-0.30;99.90;;;;;;4956379;29;20354;-77
2021/12/22 03:34:14;;;;;;;37.75;23.38;;;-0.20;99.90;;;;;;4956459;29;20027;-73
2021/12/22 03:36:43;;;;;;;41.80;25.27;;;-0.10;99.90;;;;;;4956059;29;20509;-74
2021/12/22 03:39:11;;;;;;;41.22;25.58;;;-0.10;99.90;;;;;;4955948;29;20125;-76
2021/12/22 03:41:37;;;;;;;49.08;30.65;;;-0.30;99.90;;;;;;4955962;29;20034;-78
2021/12/22 03:44:05;;;;;;;54.67;34.42;;;-0.30;99.90;;;;;;4955864;29;20124;-79
2021/12/22 03:46:31;;;;;;;66.13;37.67;;;-0.40;99.90;;;;;;4954656;29;20106;-78
2021/12/22 03:48:58;;;;;;;50.35;34.08;;;-0.40;99.90;;;;;;4957894;29;20042;-78
2021/12/22 03:51:25;;;;;;;55.80;34.72;;;-0.30;99.90;;;;;;4961149;29;20027;-78
2021/12/22 03:53:52;;;;;;;69.18;41.95;;;-0.40;99.90;;;;;;4958660;28;20118;-79
2021/12/22 03:56:19;;;;;;;91.20;48.55;;;-0.30;99.90;;;;;;4961995;29;20086;-78
2021/12/22 03:58:45;;;;;;;50.30;33.88;;;-0.40;99.90;;;;;;4964543;28;20042;-79
2021/12/22 04:01:12;;;;;;;57.47;33.40;;;-0.40;99.90;;;;;;4960499;29;20031;-79
2021/12/22 04:03:40;;;;;;;46.85;31.17;;;-0.40;99.90;;;;;;4955663;29;20050;-78
2021/12/22 04:06:06;;;;;;;49.75;33.00;;;-0.40;99.90;;;;;;4938072;29;20047;-78
2021/12/22 04:08:33;;;;;;;61.40;35.95;;;-0.30;99.90;;;;;;4955713;29;20113;-78
2021/12/22 04:10:59;;;;;;;62.83;37.22;;;-0.20;99.90;;;;;;4955524;29;20536;-77
2021/12/22 04:13:25;;;;;;;68.35;37.92;;;-0.30;99.90;;;;;;4955672;29;20027;-78
2021/12/22 04:15:51;;;;;;;60.17;37.63;;;-0.20;99.90;;;;;;4955440;29;20484;-74
2021/12/22 04:18:20;;;;;;;60.80;37.33;;;-0.20;99.90;;;;;;4962880;29;20027;-74
2021/12/22 04:20:46;;;;;;;55.42;34.60;;;-0.20;99.90;;;;;;4959717;29;20031;-80
2021/12/22 04:23:12;;;;;;;54.53;34.58;;;-0.20;99.90;;;;;;4957906;28;20031;-80
2021/12/22 04:25:39;;;;;;;52.45;34.95;;;-0.20;99.90;;;;;;4955041;28;20118;-80
2021/12/22 04:28:09;;;;;;;50.72;32.67;;;-0.20;99.90;;;;;;4955386;29;20055;-80
2021/12/22 04:30:42;;;;;;;49.90;32.83;;;-0.20;99.90;;;;;;4955300;29;20533;-78
2021/12/22 04:33:11;;;;;;;52.22;31.38;;;-0.20;99.90;;;;;;4956468;29;20031;-79
2021/12/22 04:35:37;;;;;;;50.97;33.03;;;-0.10;99.90;;;;;;4954438;29;20031;-79
2021/12/22 04:38:03;;;;;;;60.55;39.80;;;-0.10;99.90;;;;;;4959687;29;20038;-79
2021/12/22 04:40:29;;;;;;;68.93;46.13;;;0.00;99.90;;;;;;4957620;29;20067;-77
2021/12/22 04:42:55;;;;;;;75.07;47.78;;;0.00;99.90;;;;;;4956765;29;20063;-78
2021/12/22 04:45:21;;;;;;;63.97;43.15;;;0.10;99.90;;;;;;4956684;29;20027;-78
2021/12/22 04:47:48;;;;;;;69.72;46.05;;;0.10;99.90;;;;;;4960577;29;20111;-78
2021/12/22 04:50:17;;;;;;;137.15;78.88;;;0.20;99.90;;;;;;4962316;29;20023;-71
2021/12/22 04:53:01;;;;;;;80.85;45.65;;;0.20;99.90;;;;;;4956643;29;20046;-77
2021/12/22 04:55:27;;;;;;;;;;;0.30;99.90;;;;;;4957536;29;20027;-78
2021/12/22 04:57:55;;;;;;;78.57;42.85;;;0.30;99.90;;;;;;4954903;29;19906;-78
2021/12/22 05:00:24;;;;;;;61.97;38.08;;;0.30;99.90;;;;;;4954747;29;20042;-78
2021/12/22 05:02:50;;;;;;;60.55;36.45;;;0.30;99.90;;;;;;4954368;29;20050;-78
2021/12/22 05:05:16;;;;;;;65.95;37.85;;;0.40;99.90;;;;;;4954257;29;20498;-78
2021/12/22 05:07:43;;;;;;;63.22;40.20;;;0.40;99.90;;;;;;4954525;29;20046;-78
2021/12/22 05:10:10;;;;;;;72.60;42.72;;;0.40;99.90;;;;;;4960438;29;20035;-78
2021/12/22 05:12:36;;;;;;;66.85;42.63;;;0.50;99.90;;;;;;4958829;28;20435;-76
2021/12/22 05:15:04;;;;;;;64.63;38.47;;;0.50;99.90;;;;;;4958936;29;20027;-79
2021/12/22 05:18:02;;;;;;;72.03;42.13;;;0.50;99.90;;;;;;4959810;29;20023;-79
2021/12/22 05:20:25;;;;;;;68.25;41.58;;;0.50;99.90;;;;;;4961515;28;20078;-77
2021/12/22 05:22:52;;;;;;;63.97;39.35;;;0.60;99.90;;;;;;4958934;28;20030;-77
2021/12/22 05:25:18;;;;;;;61.55;37.15;;;0.60;99.90;;;;;;4958824;29;20054;-78
2021/12/22 05:27:44;;;;;;;62.60;40.33;;;0.60;99.90;;;;;;4956516;29;20043;-77
2021/12/22 05:30:11;;;;;;;69.45;45.28;;;0.60;99.90;;;;;;4954885;29;20102;-76
2021/12/22 05:32:38;;;;;;;69.35;43.10;;;0.70;99.90;;;;;;4954764;29;20030;-78
2021/12/22 05:35:08;;;;;;;71.55;41.95;;;0.70;99.90;;;;;;4955243;28;20027;-80
2021/12/22 05:37:34;;;;;;;75.28;44.15;;;0.70;99.90;;;;;;4957695;29;20039;-78
2021/12/22 05:40:00;;;;;;;71.18;45.13;;;0.70;99.90;;;;;;4957950;29;20038;-76
2021/12/22 05:42:26;;;;;;;67.93;42.58;;;0.80;99.90;;;;;;4958106;29;20385;-77
2021/12/22 05:44:53;;;;;;;82.75;48.45;;;0.80;99.90;;;;;;4957906;28;20513;-74
2021/12/22 05:47:19;;;;;;;87.82;51.75;;;0.80;99.90;;;;;;4958301;29;20043;-73
2021/12/22 05:49:45;;;;;;;86.55;53.25;;;0.80;99.90;;;;;;4957757;29;20520;-78
2021/12/22 05:52:11;;;;;;;88.57;51.42;;;0.80;99.90;;;;;;4958239;29;20031;-77
2021/12/22 05:54:38;;;;;;;80.80;50.40;;;0.80;99.90;;;;;;4957850;28;20055;-76
2021/12/22 05:57:04;;;;;;;86.53;49.63;;;0.80;99.90;;;;;;4957962;29;20031;-77
2021/12/22 05:59:30;;;;;;;89.43;51.75;;;0.80;99.90;;;;;;4957418;28;20034;-72
2021/12/22 06:01:56;;;;;;;82.78;50.60;;;0.80;99.90;;;;;;4957376;29;20027;-76
2021/12/22 06:04:22;;;;;;;82.57;51.80;;;0.80;99.90;;;;;;4957571;29;20061;-74
2021/12/22 06:06:48;;;;;;;89.55;55.90;;;0.80;99.90;;;;;;4957286;29;20827;-78
2021/12/22 06:09:14;;;;;;;80.80;54.47;;;0.70;99.90;;;;;;4957203;29;20035;-70
2021/12/22 06:11:40;;;;;;;99.18;61.33;;;0.70;99.90;;;;;;4957243;29;20086;-78
2021/12/22 06:14:06;;;;;;;93.15;55.50;;;0.70;99.90;;;;;;4957369;29;20024;-73
2021/12/22 06:16:32;;;;;;;75.38;49.60;;;0.70;99.90;;;;;;4957486;29;20043;-78
2021/12/22 06:19:01;;;;;;;86.30;52.47;;;0.70;99.90;;;;;;4957387;29;20382;-76
2021/12/22 06:21:27;;;;;;;80.78;50.85;;;0.70;99.90;;;;;;4957262;29;20033;-75
2021/12/22 06:23:53;;;;;;;76.38;51.70;;;0.60;99.90;;;;;;4957197;29;20094;-78
2021/12/22 06:26:18;;;;;;;78.97;48.53;;;0.60;99.90;;;;;;4957244;29;20062;-77
2021/12/22 06:28:44;;;;;;;65.82;42.22;;;0.60;99.90;;;;;;4957692;29;20031;-77
2021/12/22 06:31:10;;;;;;;65.57;41.35;;;0.60;99.90;;;;;;4955773;29;20050;-78
2021/12/22 06:33:36;;;;;;;68.30;42.15;;;0.60;99.90;;;;;;4957129;29;20031;-75
2021/12/22 06:36:02;;;;;;;83.38;50.30;;;0.60;99.90;;;;;;4956982;29;20035;-77
2021/12/22 06:38:28;;;;;;;76.13;45.92;;;0.60;99.90;;;;;;4957142;29;20030;-74
2021/12/22 06:40:54;;;;;;;77.07;50.85;;;0.60;99.90;;;;;;4956936;29;20031;-76
2021/12/22 06:43:20;;;;;;;79.03;49.83;;;0.60;99.90;;;;;;4957429;29;20030;-74
2021/12/22 06:45:46;;;;;;;70.85;46.60;;;0.70;99.90;;;;;;4956801;29;20046;-78
2021/12/22 06:48:12;;;;;;;90.72;52.15;;;0.60;99.90;;;;;;4956621;28;20031;-78
2021/12/22 06:50:38;;;;;;;77.55;48.85;;;0.70;99.90;;;;;;4956813;29;20042;-78
2021/12/22 06:53:04;;;;;;;75.80;45.97;;;0.60;99.90;;;;;;4956891;29;20028;-78
2021/12/22 06:55:30;;;;;;;71.88;43.35;;;0.70;99.90;;;;;;4956736;29;20059;-78
2021/12/22 06:57:56;;;;;;;62.58;39.58;;;0.80;99.90;;;;;;4955665;29;20090;-78
2021/12/22 07:00:26;;;;;;;68.32;43.80;;;0.80;99.90;;;;;;4978263;29;20019;-77
2021/12/22 07:02:59;;;;;;;63.63;41.83;;;0.90;99.90;;;;;;4977230;28;20019;-78
2021/12/22 07:05:35;;;;;;;63.38;42.08;;;0.90;99.90;;;;;;4973771;28;20043;-79
2021/12/22 07:08:07;;;;;;;64.18;42.00;;;0.90;99.90;;;;;;4958206;29;20027;-78
2021/12/22 07:10:35;;;;;;;71.45;46.70;;;1.00;99.90;;;;;;4957448;29;20028;-80
2021/12/22 07:13:06;;;;;;;66.25;43.60;;;0.90;99.90;;;;;;4972946;29;20506;-76
2021/12/22 07:15:38;;;;;;;61.25;41.63;;;1.00;99.90;;;;;;4955442;29;20027;-79
2021/12/22 07:18:16;;;;;;;66.15;42.83;;;1.00;99.90;;;;;;4941029;29;20049;-79
2021/12/22 07:20:46;;;;;;;71.10;45.40;;;1.10;99.90;;;;;;4955693;29;20024;-79
2021/12/22 07:23:15;;;;;;;81.00;51.72;;;1.10;99.90;;;;;;4946950;29;20036;-78
2021/12/22 07:25:41;;;;;;;78.72;49.55;;;1.10;99.90;;;;;;4935880;29;20031;-77
2021/12/22 07:28:10;;;;;;;72.22;48.65;;;1.00;99.90;;;;;;4955519;29;20034;-78
2021/12/22 07:30:42;;;;;;;78.13;53.28;;;1.00;99.90;;;;;;4958393;29;20054;-80
2021/12/22 07:33:24;;;;;;;72.93;49.17;;;1.00;99.90;;;;;;4955841;29;20035;-79
2021/12/22 07:36:16;;;;;;;87.78;56.08;;;1.00;99.90;;;;;;4959777;29;20024;-79
2021/12/22 07:39:15;;;;;;;81.70;52.28;;;1.00;99.90;;;;;;4943682;28;20120;-78
2021/12/22 07:41:48;;;;;;;85.55;53.42;;;1.10;99.90;;;;;;4956284;29;20039;-78
2021/12/22 07:44:24;;;;;;;86.13;57.85;;;1.20;99.90;;;;;;4959715;28;20031;-80
2021/12/22 07:47:06;;;;;;;96.30;60.27;;;1.30;99.90;;;;;;4942063;29;20043;-77
2021/12/22 07:49:42;;;;;;;98.78;62.50;;;1.30;99.90;;;;;;4957666;29;20269;-79
2021/12/22 07:52:13;;;;;;;95.75;60.60;;;1.30;99.90;;;;;;4939178;29;20035;-78
2021/12/22 07:54:39;;;;;;;94.28;58.75;;;1.40;99.90;;;;;;4930177;29;20501;-72
2021/12/22 07:57:07;;;;;;;98.65;59.63;;;1.40;99.90;;;;;;4954285;29;20031;-77
2021/12/22 07:59:38;;;;;;;102.55;65.75;;;1.50;99.90;;;;;;4954443;29;20056;-79
2021/12/22 08:02:13;;;;;;;95.28;62.50;;;1.60;99.90;;;;;;4954937;29;20062;-79
2021/12/22 08:04:46;;;;;;;123.63;79.43;;;1.60;99.90;;;;;;4954934;29;20039;-80
2021/12/22 08:07:14;;;;;;;160.75;107.13;;;1.70;99.90;;;;;;4940271;29;20058;-79
2021/12/22 08:09:40;;;;;;;173.43;115.93;;;1.60;99.90;;;;;;4969649;29;20102;-79
2021/12/22 08:12:10;;;;;;;179.68;119.70;;;1.50;99.90;;;;;;4955966;29;20094;-77
2021/12/22 08:14:44;;;;;;;161.02;106.22;;;1.50;99.90;;;;;;4972803;29;20027;-78
2021/12/22 08:17:15;;;;;;;105.88;68.90;;;1.50;99.90;;;;;;4970623;28;20035;-79
2021/12/22 08:19:48;;;;;;;105.35;65.43;;;1.60;99.90;;;;;;4971221;29;20027;-78
2021/12/22 08:22:18;;;;;;;95.20;58.83;;;1.60;99.90;;;;;;4972100;28;20038;-79
2021/12/22 08:24:55;;;;;;;98.25;62.03;;;1.50;99.90;;;;;;4953015;29;20067;-76
2021/12/22 08:27:24;;;;;;;103.53;63.22;;;1.70;99.90;;;;;;4961619;29;20063;-79
2021/12/22 08:29:51;;;;;;;90.95;60.53;;;1.80;99.90;;;;;;4954601;29;20066;-76
2021/12/22 08:32:26;;;;;;;101.43;64.25;;;2.00;99.90;;;;;;4972037;29;20023;-79
2021/12/22 08:41:13;;;;;;;145.05;91.00;;;2.10;99.90;;;;;;4950015;29;20032;-79
2021/12/22 08:43:42;;;;;;;131.50;85.50;;;2.10;99.90;;;;;;4952725;29;20690;-80
2021/12/22 08:46:14;;;;;;;144.98;91.45;;;2.10;99.90;;;;;;4935017;29;20556;-78
2021/12/22 08:48:46;;;;;;;154.52;96.82;;;2.10;99.90;;;;;;4952920;29;20035;-77
2021/12/22 08:51:18;;;;;;;158.63;101.13;;;2.20;99.90;;;;;;4952380;29;20035;-81
2021/12/22 08:53:53;;;;;;;157.93;106.00;;;2.30;99.90;;;;;;4951236;29;20068;-80
2021/12/22 08:56:24;;;;;;;172.93;113.30;;;2.40;99.90;;;;;;4952202;29;20048;-78
2021/12/22 08:58:57;;;;;;;169.32;113.38;;;2.30;99.90;;;;;;4935661;29;20040;-79
2021/12/22 09:01:30;;;;;;;166.55;112.93;;;2.30;99.90;;;;;;4951969;29;20020;-79
2021/12/22 09:04:08;;;;;;;175.18;113.90;;;2.40;99.90;;;;;;4934859;29;20036;-79
2021/12/22 09:06:39;;;;;;;154.57;108.72;;;2.50;99.90;;;;;;4931875;29;20056;-80
2021/12/22 09:09:10;;;;;;;147.45;100.28;;;2.60;99.90;;;;;;4932076;29;20032;-79
2021/12/22 09:11:39;;;;;;;129.73;88.72;;;2.60;99.90;;;;;;4931548;29;20085;-80
2021/12/22 09:14:10;;;;;;;129.63;82.40;;;2.70;99.90;;;;;;4932685;29;20047;-80
2021/12/22 09:16:44;;;;;;;107.85;63.17;;;2.70;99.90;;;;;;4947967;29;20036;-79
2021/12/22 09:19:15;;;;;;;109.18;61.88;;;2.70;99.90;;;;;;4946482;29;20020;-79
2021/12/22 09:21:48;;;;;;;109.50;65.88;;;2.80;99.90;;;;;;4933272;29;20040;-80
2021/12/22 09:24:17;;;;;;;120.97;74.10;;;2.80;99.90;;;;;;4948679;29;20092;-78
2021/12/22 09:26:48;;;;;;;126.35;77.75;;;2.90;99.90;;;;;;4932878;29;20051;-80
2021/12/22 09:29:19;;;;;;;;;;;3.00;99.90;;;;;;4903810;29;20382;-77
2021/12/22 09:31:45;;;;;;;105.32;70.68;;;3.00;99.90;;;;;;4917194;29;19907;-71
2021/12/22 09:34:11;;;;;;;112.55;70.43;;;2.90;99.90;;;;;;4918261;29;20036;-72
2021/12/22 09:36:37;;;;;;;119.78;77.85;;;2.80;99.90;;;;;;4919118;29;20036;-75
2021/12/22 09:39:03;;;;;;;128.10;83.30;;;2.90;99.90;;;;;;4919836;29;20040;-77
2021/12/22 09:41:29;;;;;;;129.13;87.15;;;2.90;99.90;;;;;;4919951;29;20084;-73
2021/12/22 09:43:56;;;;;;;125.70;85.78;;;2.80;99.90;;;;;;4920805;29;20060;-79
2021/12/22 09:46:24;;;;;;;114.68;71.80;;;2.90;99.90;;;;;;4935166;29;20036;-75
2021/12/22 09:48:58;;;;;;;85.75;56.50;;;2.90;99.90;;;;;;4922367;29;20352;-78
2021/12/22 09:53:54;;;;;;;72.75;49.70;;;3.00;99.90;;;;;;4927516;29;20032;-72
2021/12/22 09:56:24;;;;;;;75.40;50.05;;;3.20;99.90;;;;;;4926858;29;20087;-79
2021/12/22 09:58:50;;;;;;;71.28;42.83;;;3.50;99.90;;;;;;4928388;29;20530;-79
2021/12/22 10:01:23;;;;;;;99.55;63.83;;;3.60;99.10;;;;;;4932133;29;20490;-79
2021/12/22 10:03:53;;;;;;;102.07;68.80;;;3.60;99.20;;;;;;4931258;29;20052;-77
2021/12/22 10:06:20;;;;;;;91.43;56.92;;;3.40;99.90;;;;;;4946577;29;20052;-73
2021/12/22 10:08:57;;;;;;;75.40;49.05;;;3.60;99.30;;;;;;4952547;29;20544;-78
2021/12/22 10:11:23;;;;;;;77.43;50.22;;;3.60;96.40;;;;;;4954522;29;20027;-78
2021/12/22 10:13:50;;;;;;;76.85;48.55;;;3.60;97.20;;;;;;4953386;29;20367;-75
2021/12/22 10:16:17;;;;;;;81.22;53.83;;;3.60;96.80;;;;;;4952412;29;20031;-73
2021/12/22 10:18:44;;;;;;;77.88;49.67;;;3.50;96.90;;;;;;4952605;29;20012;-74
2021/12/22 10:21:21;;;;;;;63.70;40.25;;;3.40;96.30;;;;;;4951794;29;20055;-70
2021/12/22 10:23:54;;;;;;;68.10;44.92;;;3.50;93.80;;;;;;4955908;29;20028;-75
2021/12/22 10:26:26;;;;;;;56.95;38.17;;;3.40;94.20;;;;;;4957102;29;20055;-71
2021/12/22 10:28:57;;;;;;;60.00;38.95;;;3.40;93.70;;;;;;4954871;29;20024;-77
2021/12/22 10:31:45;;;;;;;61.95;40.58;;;3.50;94.00;;;;;;4956007;29;20012;-78
2021/12/22 10:34:15;;;;;;;65.65;38.15;;;3.70;92.90;;;;;;4957513;29;20020;-71
2021/12/22 10:36:46;;;;;;;65.25;40.10;;;3.80;92.00;;;;;;4954195;29;20015;-74
2021/12/22 10:39:19;;;;;;;78.47;47.25;;;3.80;92.60;;;;;;4957017;29;20031;-75
2021/12/22 10:41:45;;;;;;;;;;;3.80;96.10;;;;;;4957402;29;20014;-73
2021/12/22 10:44:11;;;;;;;76.65;46.17;;;3.80;97.20;;;;;;4957483;29;19907;-76
2021/12/22 10:46:37;;;;;;;62.83;38.35;;;3.60;96.00;;;;;;4957387;29;20024;-74
2021/12/22 10:49:20;;;;;;;67.25;43.25;;;3.50;93.80;;;;;;4957858;29;20016;-72
2021/12/22 10:52:00;;;;;;;69.38;43.33;;;3.50;94.90;;;;;;4947529;29;20036;-72
2021/12/22 10:54:37;;;;;;;78.07;45.55;;;3.60;96.40;;;;;;4952450;29;20098;-76
2021/12/22 10:57:11;;;;;;;73.93;45.95;;;3.60;95.80;;;;;;4955483;29;20056;-74
2021/12/22 10:59:55;;;;;;;60.92;37.80;;;3.70;94.00;;;;;;4954994;29;20079;-79
2021/12/22 11:02:25;;;;;;;43.33;26.13;;;3.80;93.60;;;;;;4957693;29;20064;-76
2021/12/22 11:04:51;;;;;;;41.83;22.17;;;3.70;90.70;;;;;;4957497;29;20031;-74
2021/12/22 11:07:26;;;;;;;32.78;19.33;;;3.70;89.80;;;;;;4955535;29;20020;-74
2021/12/22 11:09:52;;;;;;;33.50;18.15;;;3.70;88.80;;;;;;4956693;29;20023;-76
2021/12/22 11:12:36;;;;;;;29.23;18.80;;;3.80;88.40;;;;;;4957484;29;20027;-78
2021/12/22 11:15:04;;;;;;;28.40;16.65;;;3.80;88.10;;;;;;4956716;29;20019;-73
2021/12/22 11:17:31;;;;;;;28.50;16.20;;;3.80;86.30;;;;;;4956316;29;20042;-71
2021/12/22 11:20:04;;;;;;;25.13;12.60;;;3.80;84.40;;;;;;4956300;29;20031;-74
2021/12/22 11:22:51;;;;;;;27.58;15.50;;;3.60;82.90;;;;;;4954811;29;20055;-76
2021/12/22 11:25:17;;;;;;;25.23;13.85;;;3.70;86.00;;;;;;4953248;29;20490;-76
2021/12/22 11:27:43;;;;;;;20.13;12.57;;;3.80;84.40;;;;;;4952110;29;20031;-71
2021/12/22 11:30:10;;;;;;;21.08;9.75;;;3.70;82.60;;;;;;4950707;29;20110;-74
2021/12/22 11:32:36;;;;;;;35.10;20.73;;;3.80;81.00;;;;;;4953118;29;20020;-78
2021/12/22 11:35:12;;;;;;;25.00;14.68;;;3.80;84.40;;;;;;4950911;29;20071;-79
2021/12/22 11:37:38;;;;;;;16.08;8.20;;;3.80;84.10;;;;;;4949150;29;20407;-78
2021/12/22 11:40:08;;;;;;;18.83;9.50;;;3.90;79.20;;;;;;4949565;29;20027;-74
2021/12/22 11:42:38;;;;;;;25.00;13.77;;;3.90;78.40;;;;;;4948993;29;20032;-70
2021/12/22 11:45:05;;;;;;;31.90;17.27;;;3.80;81.40;;;;;;4948659;29;20059;-77
2021/12/22 11:47:36;;;;;;;24.38;13.13;;;3.90;82.30;;;;;;4947101;29;20067;-72
2021/12/22 11:50:04;;;;;;;28.48;15.35;;;3.90;79.70;;;;;;4946543;29;20031;-71
2021/12/22 11:52:30;;;;;;;29.88;15.73;;;4.00;78.60;;;;;;4944713;29;20035;-79
2021/12/22 11:55:13;;;;;;;26.55;14.23;;;4.00;81.20;;;;;;4946518;29;20027;-79
2021/12/22 11:57:40;;;;;;;25.17;13.75;;;4.00;80.90;;;;;;4944195;29;20035;-74
2021/12/22 12:00:26;;;;;;;26.95;15.50;;;4.10;81.50;;;;;;4944784;29;20038;-79
2021/12/22 12:02:54;;;;;;;21.88;11.70;;;4.10;82.50;;;;;;4946286;29;20122;-79
2021/12/22 12:05:26;;;;;;;23.92;11.73;;;4.10;81.30;;;;;;4946274;29;20446;-72
2021/12/22 12:08:03;;;;;;;20.23;11.43;;;4.10;80.20;;;;;;4945913;29;20091;-78
2021/12/22 12:10:46;;;;;;;18.75;10.27;;;4.00;78.60;;;;;;4943876;29;20032;-79
2021/12/22 12:13:22;;;;;;;20.27;11.13;;;4.10;79.50;;;;;;4943313;29;20032;-79
2021/12/22 12:22:17;;;;;;;20.08;7.90;;;4.10;78.00;;;;;;4942455;29;20027;-70
2021/12/22 12:24:55;;;;;;;15.85;7.70;;;4.10;77.90;;;;;;4943142;29;20058;-76
2021/12/22 12:27:43;;;;;;;16.83;6.97;;;4.00;77.20;;;;;;4942540;29;20054;-80
2021/12/22 12:30:13;;;;;;;13.38;6.30;;;4.10;77.10;;;;;;4941848;29;20047;-78
2021/12/22 12:32:39;;;;;;;17.13;7.47;;;4.20;74.60;;;;;;4942830;29;20414;-74
2021/12/22 12:35:17;;;;;;;16.60;8.07;;;4.20;75.30;;;;;;4940746;29;20020;-80
2021/12/22 12:38:22;;;;;;;16.80;8.88;;;4.10;75.90;;;;;;4941767;29;20020;-79
2021/12/22 12:40:57;;;;;;;12.07;5.13;;;4.10;74.20;;;;;;4942335;29;20102;-79
2021/12/22 12:43:44;;;;;;;13.48;7.07;;;4.00;71.60;;;;;;4941124;29;20525;-79
2021/12/22 12:46:29;;;;;;;10.23;5.57;;;4.00;74.60;;;;;;4939245;29;20094;-78
2021/12/22 12:49:07;;;;;;;16.63;8.63;;;4.10;74.00;;;;;;4941442;29;20028;-76
2021/12/22 12:51:49;;;;;;;18.60;9.18;;;4.10;76.50;;;;;;4940493;29;20389;-79
2021/12/22 12:54:20;;;;;;;20.60;10.77;;;4.00;76.10;;;;;;4941297;29;20086;-79
2021/12/22 12:56:59;;;;;;;17.38;10.15;;;4.00;77.00;;;;;;4941524;29;20388;-79
2021/12/22 12:59:37;;;;;;;21.98;11.80;;;4.10;77.60;;;;;;4941116;29;20028;-79
2021/12/22 13:02:04;;;;;;;18.23;9.82;;;4.10;78.00;;;;;;4942545;29;20565;-75
2021/12/22 13:04:41;;;;;;;19.35;9.57;;;4.10;76.30;;;;;;4940379;29;20023;-78
2021/12/22 13:07:13;;;;;;;14.65;7.70;;;4.10;75.60;;;;;;4941255;29;20036;-79
2021/12/22 13:09:40;;;;;;;16.40;8.52;;;4.00;75.10;;;;;;4941162;29;20031;-78
2021/12/22 13:17:22;;;;;;;15.13;8.52;;;4.00;75.90;;;;;;4941104;29;20031;-73
2021/12/22 13:19:53;;;;;;;18.05;8.75;;;4.00;76.10;;;;;;4943118;29;20020;-79
2021/12/22 13:22:20;;;;;;;20.58;10.40;;;4.00;76.30;;;;;;4942436;29;20537;-78
2021/12/22 13:24:46;;;;;;;20.08;10.75;;;4.00;76.70;;;;;;4941651;29;20031;-79
2021/12/22 13:27:12;;;;;;;18.83;9.65;;;4.00;77.90;;;;;;4941286;29;20131;-73